sensor_id;sensor_type;location;lat;lon;timestamp;temperature;humidity
3312;DHT22;1668;49.648;8.570;2022-10-19T00:00:00;15.10;99.90
3312;DHT22;1668;49.648;8.570;2022-10-19T00:02:27;15.10;99.90
3312;DHT22;1668;49.648;8.570;2022-10-19T00:04:55;15.10;99.90
3312;DHT22;1668;49.648;8.570;2022-10-19T00:07:22;15.10;99.90
3312;DHT22;1668;49.648;8.570;2022-10-19T00:09:49;15.10;99.90
3312;DHT22;1668;49.648;8.570;2022-10-19T00:12:16;15.10;99.90
3312;DHT22;1668;49.648;8.570;2022-10-19T00:14:43;15.00;99.90
3312;DHT22;1668;49.648;8.570;2022-10-19T00:17:10;15.00;99.90
3312;DHT22;1668;49.648;8.570;2022-10-19T00:19:37;15.00;99.90
3312;DHT22;1668;49.648;8.570;2022-10-19T00:22:05;15.00;99.90
3312;DHT22;1668;49.648;8.570;2022-10-19T00:24:32;15.00;99.90
3312;DHT22;1668;49.648;8.570;2022-10-19T00:26:59;15.00;99.90
3312;DHT22;1668;49.648;8.570;2022-10-19T00:29:26;15.00;99.90
3312;DHT22;1668;49.648;8.570;2022-10-19T00:31:52;15.00;99.90
3312;DHT22;1668;49.648;8.570;2022-10-19T00:34:19;14.90;99.90
3312;DHT22;1668;49.648;8.570;2022-10-19T00:36:46;14.90;99.90
3312;DHT22;1668;49.648;8.570;2022-10-19T00:39:16;14.80;99.90
3312;DHT22;1668;49.648;8.570;2022-10-19T00:41:44;14.80;99.90
3312;DHT22;1668;49.648;8.570;2022-10-19T00:47:12;14.80;99.90
3312;DHT22;1668;49.648;8.570;2022-10-19T00:49:42;14.80;99.90
3312;DHT22;1668;49.648;8.570;2022-10-19T00:52:14;14.80;99.90
3312;DHT22;1668;49.648;8.570;2022-10-19T00:54:45;14.80;99.90
3312;DHT22;1668;49.648;8.570;2022-10-19T00:57:13;14.80;99.90
3312;DHT22;1668;49.648;8.570;2022-10-19T00:59:42;14.70;99.90
3312;DHT22;1668;49.648;8.570;2022-10-19T01:02:09;14.70;99.90
3312;DHT22;1668;49.648;8.570;2022-10-19T01:04:38;14.70;99.90
3312;DHT22;1668;49.648;8.570;2022-10-19T01:07:07;14.70;99.90
3312;DHT22;1668;49.648;8.570;2022-10-19T01:09:34;14.70;99.90
3312;DHT22;1668;49.648;8.570;2022-10-19T01:12:09;14.70;99.90
3312;DHT22;1668;49.648;8.570;2022-10-19T01:14:46;14.70;99.90
3312;DHT22;1668;49.648;8.570;2022-10-19T01:17:25;14.60;99.90
3312;DHT22;1668;49.648;8.570;2022-10-19T01:23:04;14.70;99.90
3312;DHT22;1668;49.648;8.570;2022-10-19T01:25:47;14.70;99.90
3312;DHT22;1668;49.648;8.570;2022-10-19T01:28:31;14.60;99.90
3312;DHT22;1668;49.648;8.570;2022-10-19T01:31:08;14.60;99.90
3312;DHT22;1668;49.648;8.570;2022-10-19T01:33:41;14.60;99.90
3312;DHT22;1668;49.648;8.570;2022-10-19T01:36:18;14.50;99.90
3312;DHT22;1668;49.648;8.570;2022-10-19T01:38:53;14.50;99.90
3312;DHT22;1668;49.648;8.570;2022-10-19T01:41:28;14.50;99.90
3312;DHT22;1668;49.648;8.570;2022-10-19T01:44:00;14.40;99.90
3312;DHT22;1668;49.648;8.570;2022-10-19T01:46:35;14.40;99.90
3312;DHT22;1668;49.648;8.570;2022-10-19T01:49:07;14.40;99.90
3312;DHT22;1668;49.648;8.570;2022-10-19T01:51:40;14.40;99.90
3312;DHT22;1668;49.648;8.570;2022-10-19T01:54:10;14.40;99.90
3312;DHT22;1668;49.648;8.570;2022-10-19T01:56:40;14.40;99.90
3312;DHT22;1668;49.648;8.570;2022-10-19T01:59:09;14.30;99.90
3312;DHT22;1668;49.648;8.570;2022-10-19T02:01:42;14.30;99.90
3312;DHT22;1668;49.648;8.570;2022-10-19T02:04:11;14.30;99.90
3312;DHT22;1668;49.648;8.570;2022-10-19T02:06:39;14.30;99.90
3312;DHT22;1668;49.648;8.570;2022-10-19T02:09:06;14.30;99.90
3312;DHT22;1668;49.648;8.570;2022-10-19T02:11:34;14.30;99.90
3312;DHT22;1668;49.648;8.570;2022-10-19T02:14:06;14.20;99.90
3312;DHT22;1668;49.648;8.570;2022-10-19T02:16:39;14.20;99.90
3312;DHT22;1668;49.648;8.570;2022-10-19T02:19:10;14.20;99.90
3312;DHT22;1668;49.648;8.570;2022-10-19T02:21:39;14.20;99.90
3312;DHT22;1668;49.648;8.570;2022-10-19T02:24:06;14.20;99.90
3312;DHT22;1668;49.648;8.570;2022-10-19T02:26:33;14.20;99.90
3312;DHT22;1668;49.648;8.570;2022-10-19T02:29:00;14.20;99.90
3312;DHT22;1668;49.648;8.570;2022-10-19T02:31:27;14.20;99.90
3312;DHT22;1668;49.648;8.570;2022-10-19T02:33:55;14.20;99.90
3312;DHT22;1668;49.648;8.570;2022-10-19T02:36:22;14.20;99.90
3312;DHT22;1668;49.648;8.570;2022-10-19T02:38:49;14.10;99.90
3312;DHT22;1668;49.648;8.570;2022-10-19T02:41:19;14.10;99.90
3312;DHT22;1668;49.648;8.570;2022-10-19T02:43:48;14.10;99.90
3312;DHT22;1668;49.648;8.570;2022-10-19T02:46:19;14.10;99.90
3312;DHT22;1668;49.648;8.570;2022-10-19T02:48:48;14.10;99.90
3312;DHT22;1668;49.648;8.570;2022-10-19T02:51:34;14.10;99.90
3312;DHT22;1668;49.648;8.570;2022-10-19T02:54:02;14.10;99.90
3312;DHT22;1668;49.648;8.570;2022-10-19T02:56:30;14.10;99.90
3312;DHT22;1668;49.648;8.570;2022-10-19T02:58:57;14.10;99.90
3312;DHT22;1668;49.648;8.570;2022-10-19T03:01:24;14.10;99.90
3312;DHT22;1668;49.648;8.570;2022-10-19T03:03:51;14.10;99.90
3312;DHT22;1668;49.648;8.570;2022-10-19T03:06:18;14.10;99.90
3312;DHT22;1668;49.648;8.570;2022-10-19T03:08:46;14.10;99.90
3312;DHT22;1668;49.648;8.570;2022-10-19T03:11:13;14.10;99.90
3312;DHT22;1668;49.648;8.570;2022-10-19T03:13:40;14.20;99.90
3312;DHT22;1668;49.648;8.570;2022-10-19T03:16:08;14.10;99.90
3312;DHT22;1668;49.648;8.570;2022-10-19T03:18:36;14.10;99.90
3312;DHT22;1668;49.648;8.570;2022-10-19T03:21:08;14.10;99.90
3312;DHT22;1668;49.648;8.570;2022-10-19T03:23:35;14.10;99.90
3312;DHT22;1668;49.648;8.570;2022-10-19T03:26:04;14.10;99.90
3312;DHT22;1668;49.648;8.570;2022-10-19T03:28:31;14.10;99.90
3312;DHT22;1668;49.648;8.570;2022-10-19T03:30:59;14.10;99.90
3312;DHT22;1668;49.648;8.570;2022-10-19T03:33:25;14.10;99.90
3312;DHT22;1668;49.648;8.570;2022-10-19T03:36:18;14.10;99.90
3312;DHT22;1668;49.648;8.570;2022-10-19T03:38:46;14.20;99.90
3312;DHT22;1668;49.648;8.570;2022-10-19T03:41:16;14.20;99.90
3312;DHT22;1668;49.648;8.570;2022-10-19T03:43:43;14.20;99.90
3312;DHT22;1668;49.648;8.570;2022-10-19T03:46:10;14.20;99.90
3312;DHT22;1668;49.648;8.570;2022-10-19T03:48:37;14.20;99.90
3312;DHT22;1668;49.648;8.570;2022-10-19T03:51:06;14.20;99.90
3312;DHT22;1668;49.648;8.570;2022-10-19T03:53:34;14.20;99.90
3312;DHT22;1668;49.648;8.570;2022-10-19T03:56:02;14.20;99.90
3312;DHT22;1668;49.648;8.570;2022-10-19T03:58:33;14.10;99.90
3312;DHT22;1668;49.648;8.570;2022-10-19T04:01:05;14.10;99.90
3312;DHT22;1668;49.648;8.570;2022-10-19T04:03:32;14.10;99.90
3312;DHT22;1668;49.648;8.570;2022-10-19T04:06:03;14.10;99.90
3312;DHT22;1668;49.648;8.570;2022-10-19T04:08:31;14.10;99.90
3312;DHT22;1668;49.648;8.570;2022-10-19T04:10:59;14.10;99.90
3312;DHT22;1668;49.648;8.570;2022-10-19T04:13:26;14.10;99.90
3312;DHT22;1668;49.648;8.570;2022-10-19T04:15:55;14.00;99.90
3312;DHT22;1668;49.648;8.570;2022-10-19T04:18:22;14.00;99.90
3312;DHT22;1668;49.648;8.570;2022-10-19T04:20:54;14.00;99.90
3312;DHT22;1668;49.648;8.570;2022-10-19T04:23:22;14.00;99.90
3312;DHT22;1668;49.648;8.570;2022-10-19T04:25:49;14.00;99.90
3312;DHT22;1668;49.648;8.570;2022-10-19T04:28:15;14.00;99.90
3312;DHT22;1668;49.648;8.570;2022-10-19T04:30:42;13.90;99.90
3312;DHT22;1668;49.648;8.570;2022-10-19T04:33:11;13.90;99.90
3312;DHT22;1668;49.648;8.570;2022-10-19T04:35:37;13.90;99.90
3312;DHT22;1668;49.648;8.570;2022-10-19T04:38:04;13.90;99.90
3312;DHT22;1668;49.648;8.570;2022-10-19T04:40:33;13.90;99.90
3312;DHT22;1668;49.648;8.570;2022-10-19T04:43:00;13.90;99.90
3312;DHT22;1668;49.648;8.570;2022-10-19T04:45:27;13.90;99.90
3312;DHT22;1668;49.648;8.570;2022-10-19T04:47:54;13.90;99.90
3312;DHT22;1668;49.648;8.570;2022-10-19T04:50:23;13.80;99.90
3312;DHT22;1668;49.648;8.570;2022-10-19T04:52:51;13.80;99.90
3312;DHT22;1668;49.648;8.570;2022-10-19T04:55:18;13.80;99.90
3312;DHT22;1668;49.648;8.570;2022-10-19T04:57:44;13.80;99.90
3312;DHT22;1668;49.648;8.570;2022-10-19T05:00:13;13.80;99.90
3312;DHT22;1668;49.648;8.570;2022-10-19T05:02:42;13.80;99.90
3312;DHT22;1668;49.648;8.570;2022-10-19T05:05:09;13.80;99.90
3312;DHT22;1668;49.648;8.570;2022-10-19T05:07:38;13.70;99.90
3312;DHT22;1668;49.648;8.570;2022-10-19T05:10:06;13.70;99.90
3312;DHT22;1668;49.648;8.570;2022-10-19T05:12:34;13.70;99.90
3312;DHT22;1668;49.648;8.570;2022-10-19T05:15:01;13.70;99.90
3312;DHT22;1668;49.648;8.570;2022-10-19T05:17:29;13.70;99.90
3312;DHT22;1668;49.648;8.570;2022-10-19T05:19:56;13.70;99.90
3312;DHT22;1668;49.648;8.570;2022-10-19T05:22:23;13.70;99.90
3312;DHT22;1668;49.648;8.570;2022-10-19T05:24:51;13.60;99.90
3312;DHT22;1668;49.648;8.570;2022-10-19T05:27:18;13.60;99.90
3312;DHT22;1668;49.648;8.570;2022-10-19T05:29:47;13.60;99.90
3312;DHT22;1668;49.648;8.570;2022-10-19T05:32:13;13.60;99.90
3312;DHT22;1668;49.648;8.570;2022-10-19T05:34:40;13.60;99.90
3312;DHT22;1668;49.648;8.570;2022-10-19T05:37:07;13.50;99.90
3312;DHT22;1668;49.648;8.570;2022-10-19T05:39:34;13.50;99.90
3312;DHT22;1668;49.648;8.570;2022-10-19T05:42:02;13.50;99.90
3312;DHT22;1668;49.648;8.570;2022-10-19T05:44:29;13.50;99.90
3312;DHT22;1668;49.648;8.570;2022-10-19T05:46:56;13.50;99.90
3312;DHT22;1668;49.648;8.570;2022-10-19T05:49:23;13.50;99.90
3312;DHT22;1668;49.648;8.570;2022-10-19T05:51:50;13.50;99.90
3312;DHT22;1668;49.648;8.570;2022-10-19T05:54:17;13.50;99.90
3312;DHT22;1668;49.648;8.570;2022-10-19T05:56:45;13.50;99.90
3312;DHT22;1668;49.648;8.570;2022-10-19T05:59:16;13.50;99.90
3312;DHT22;1668;49.648;8.570;2022-10-19T06:01:43;13.40;99.90
3312;DHT22;1668;49.648;8.570;2022-10-19T06:04:10;13.40;99.90
3312;DHT22;1668;49.648;8.570;2022-10-19T06:06:39;13.40;99.90
3312;DHT22;1668;49.648;8.570;2022-10-19T06:09:07;13.40;99.90
3312;DHT22;1668;49.648;8.570;2022-10-19T06:11:36;13.50;99.90
3312;DHT22;1668;49.648;8.570;2022-10-19T06:14:05;13.50;99.90
3312;DHT22;1668;49.648;8.570;2022-10-19T06:16:34;13.50;99.90
3312;DHT22;1668;49.648;8.570;2022-10-19T06:19:03;13.50;99.90
3312;DHT22;1668;49.648;8.570;2022-10-19T06:21:31;13.50;99.90
3312;DHT22;1668;49.648;8.570;2022-10-19T06:23:59;13.50;99.90
3312;DHT22;1668;49.648;8.570;2022-10-19T06:26:27;13.50;99.90
3312;DHT22;1668;49.648;8.570;2022-10-19T06:28:55;13.50;99.90
3312;DHT22;1668;49.648;8.570;2022-10-19T06:31:25;13.50;99.90
3312;DHT22;1668;49.648;8.570;2022-10-19T06:33:53;13.50;99.90
3312;DHT22;1668;49.648;8.570;2022-10-19T06:36:21;13.50;99.90
3312;DHT22;1668;49.648;8.570;2022-10-19T06:38:49;13.50;99.90
3312;DHT22;1668;49.648;8.570;2022-10-19T06:41:18;13.50;99.90
3312;DHT22;1668;49.648;8.570;2022-10-19T06:43:48;13.50;99.90
3312;DHT22;1668;49.648;8.570;2022-10-19T06:46:16;13.50;99.90
3312;DHT22;1668;49.648;8.570;2022-10-19T06:48:49;13.50;99.90
3312;DHT22;1668;49.648;8.570;2022-10-19T06:51:18;13.50;99.90
3312;DHT22;1668;49.648;8.570;2022-10-19T06:53:45;13.50;99.90
3312;DHT22;1668;49.648;8.570;2022-10-19T06:56:12;13.50;99.90
3312;DHT22;1668;49.648;8.570;2022-10-19T06:58:39;13.50;99.90
3312;DHT22;1668;49.648;8.570;2022-10-19T07:01:07;13.50;99.90
3312;DHT22;1668;49.648;8.570;2022-10-19T07:03:35;13.60;99.90
3312;DHT22;1668;49.648;8.570;2022-10-19T07:06:04;13.60;99.90
3312;DHT22;1668;49.648;8.570;2022-10-19T07:08:33;13.60;99.90
3312;DHT22;1668;49.648;8.570;2022-10-19T07:11:02;13.70;99.90
3312;DHT22;1668;49.648;8.570;2022-10-19T07:13:30;13.70;99.90
3312;DHT22;1668;49.648;8.570;2022-10-19T07:15:57;13.80;99.90
3312;DHT22;1668;49.648;8.570;2022-10-19T07:18:24;13.80;99.90
3312;DHT22;1668;49.648;8.570;2022-10-19T07:20:55;13.80;99.90
3312;DHT22;1668;49.648;8.570;2022-10-19T07:23:23;13.90;99.90
3312;DHT22;1668;49.648;8.570;2022-10-19T07:25:51;13.90;99.90
3312;DHT22;1668;49.648;8.570;2022-10-19T07:28:20;14.00;99.90
3312;DHT22;1668;49.648;8.570;2022-10-19T07:30:47;14.00;99.90
3312;DHT22;1668;49.648;8.570;2022-10-19T07:33:14;14.10;99.90
3312;DHT22;1668;49.648;8.570;2022-10-19T07:35:41;14.20;99.90
3312;DHT22;1668;49.648;8.570;2022-10-19T07:38:08;14.20;99.90
3312;DHT22;1668;49.648;8.570;2022-10-19T07:40:35;14.20;99.90
3312;DHT22;1668;49.648;8.570;2022-10-19T07:43:03;14.30;99.90
3312;DHT22;1668;49.648;8.570;2022-10-19T07:45:31;14.30;99.90
3312;DHT22;1668;49.648;8.570;2022-10-19T07:47:58;14.30;99.90
3312;DHT22;1668;49.648;8.570;2022-10-19T07:50:25;14.30;99.90
3312;DHT22;1668;49.648;8.570;2022-10-19T07:52:52;14.40;99.90
3312;DHT22;1668;49.648;8.570;2022-10-19T07:55:19;14.40;99.90
3312;DHT22;1668;49.648;8.570;2022-10-19T07:57:47;14.40;99.90
3312;DHT22;1668;49.648;8.570;2022-10-19T08:00:16;14.40;99.90
3312;DHT22;1668;49.648;8.570;2022-10-19T08:02:43;14.50;99.90
3312;DHT22;1668;49.648;8.570;2022-10-19T08:05:10;14.50;99.90
3312;DHT22;1668;49.648;8.570;2022-10-19T08:07:37;14.50;99.90
3312;DHT22;1668;49.648;8.570;2022-10-19T08:10:05;14.60;99.90
3312;DHT22;1668;49.648;8.570;2022-10-19T08:12:34;14.60;99.90
3312;DHT22;1668;49.648;8.570;2022-10-19T08:15:03;14.60;99.90
3312;DHT22;1668;49.648;8.570;2022-10-19T08:17:34;14.70;99.90
3312;DHT22;1668;49.648;8.570;2022-10-19T08:20:01;14.70;99.90
3312;DHT22;1668;49.648;8.570;2022-10-19T08:22:28;14.80;99.90
3312;DHT22;1668;49.648;8.570;2022-10-19T08:24:54;14.80;99.90
3312;DHT22;1668;49.648;8.570;2022-10-19T08:27:21;14.80;99.90
3312;DHT22;1668;49.648;8.570;2022-10-19T08:29:48;14.80;99.90
3312;DHT22;1668;49.648;8.570;2022-10-19T08:32:16;14.90;99.90
3312;DHT22;1668;49.648;8.570;2022-10-19T08:34:44;14.80;99.90
3312;DHT22;1668;49.648;8.570;2022-10-19T08:37:11;14.80;99.90
3312;DHT22;1668;49.648;8.570;2022-10-19T08:39:38;14.90;99.90
3312;DHT22;1668;49.648;8.570;2022-10-19T08:42:10;14.90;99.90
3312;DHT22;1668;49.648;8.570;2022-10-19T08:44:57;14.90;99.90
3312;DHT22;1668;49.648;8.570;2022-10-19T08:47:43;14.90;99.90
3312;DHT22;1668;49.648;8.570;2022-10-19T08:50:17;15.00;99.90
3312;DHT22;1668;49.648;8.570;2022-10-19T08:52:49;15.00;99.90
3312;DHT22;1668;49.648;8.570;2022-10-19T08:55:21;15.10;99.90
3312;DHT22;1668;49.648;8.570;2022-10-19T08:57:58;15.10;99.90
3312;DHT22;1668;49.648;8.570;2022-10-19T09:00:36;15.20;99.90
3312;DHT22;1668;49.648;8.570;2022-10-19T09:03:15;15.30;99.90
3312;DHT22;1668;49.648;8.570;2022-10-19T09:05:49;15.40;99.90
3312;DHT22;1668;49.648;8.570;2022-10-19T09:08:18;15.40;99.90
3312;DHT22;1668;49.648;8.570;2022-10-19T09:10:49;15.50;99.90
3312;DHT22;1668;49.648;8.570;2022-10-19T09:13:22;15.50;99.90
3312;DHT22;1668;49.648;8.570;2022-10-19T09:15:55;15.60;99.90
3312;DHT22;1668;49.648;8.570;2022-10-19T09:18:24;15.70;99.90
3312;DHT22;1668;49.648;8.570;2022-10-19T09:20:57;15.70;99.90
3312;DHT22;1668;49.648;8.570;2022-10-19T09:23:29;15.70;99.90
3312;DHT22;1668;49.648;8.570;2022-10-19T09:25:57;15.80;99.90
3312;DHT22;1668;49.648;8.570;2022-10-19T09:28:35;15.80;99.90
3312;DHT22;1668;49.648;8.570;2022-10-19T09:31:06;15.90;99.90
3312;DHT22;1668;49.648;8.570;2022-10-19T09:33:38;15.90;99.90
3312;DHT22;1668;49.648;8.570;2022-10-19T09:36:08;16.00;99.90
3312;DHT22;1668;49.648;8.570;2022-10-19T09:38:35;16.00;99.90
3312;DHT22;1668;49.648;8.570;2022-10-19T09:41:13;16.10;99.90
3312;DHT22;1668;49.648;8.570;2022-10-19T09:43:48;16.20;99.90
3312;DHT22;1668;49.648;8.570;2022-10-19T09:46:27;16.30;99.90
3312;DHT22;1668;49.648;8.570;2022-10-19T09:48:58;16.40;99.90
3312;DHT22;1668;49.648;8.570;2022-10-19T09:51:38;16.40;99.90
3312;DHT22;1668;49.648;8.570;2022-10-19T09:54:22;16.40;99.90
3312;DHT22;1668;49.648;8.570;2022-10-19T09:56:54;16.30;99.90
3312;DHT22;1668;49.648;8.570;2022-10-19T09:59:23;16.30;99.90
3312;DHT22;1668;49.648;8.570;2022-10-19T10:02:14;16.30;99.90
3312;DHT22;1668;49.648;8.570;2022-10-19T10:04:45;16.30;99.90
3312;DHT22;1668;49.648;8.570;2022-10-19T10:07:16;16.30;99.90
3312;DHT22;1668;49.648;8.570;2022-10-19T10:09:43;16.30;99.90
3312;DHT22;1668;49.648;8.570;2022-10-19T10:12:13;16.40;99.90
3312;DHT22;1668;49.648;8.570;2022-10-19T10:14:40;16.50;99.90
3312;DHT22;1668;49.648;8.570;2022-10-19T10:17:14;16.50;99.90
3312;DHT22;1668;49.648;8.570;2022-10-19T10:19:50;16.60;99.90
3312;DHT22;1668;49.648;8.570;2022-10-19T10:22:25;16.60;99.90
3312;DHT22;1668;49.648;8.570;2022-10-19T10:24:53;16.60;99.90
3312;DHT22;1668;49.648;8.570;2022-10-19T10:27:29;16.60;99.90
3312;DHT22;1668;49.648;8.570;2022-10-19T10:29:56;16.60;99.90
3312;DHT22;1668;49.648;8.570;2022-10-19T10:32:24;16.60;99.90
3312;DHT22;1668;49.648;8.570;2022-10-19T10:34:57;16.60;99.90
3312;DHT22;1668;49.648;8.570;2022-10-19T10:37:46;16.60;99.90
3312;DHT22;1668;49.648;8.570;2022-10-19T10:40:19;16.60;99.90
3312;DHT22;1668;49.648;8.570;2022-10-19T10:42:48;16.70;99.90
3312;DHT22;1668;49.648;8.570;2022-10-19T10:45:18;16.70;99.90
3312;DHT22;1668;49.648;8.570;2022-10-19T10:47:46;16.70;99.90
3312;DHT22;1668;49.648;8.570;2022-10-19T10:50:20;16.70;99.90
3312;DHT22;1668;49.648;8.570;2022-10-19T10:53:30;16.70;99.90
3312;DHT22;1668;49.648;8.570;2022-10-19T10:55:56;16.70;99.90
3312;DHT22;1668;49.648;8.570;2022-10-19T10:58:30;16.80;99.90
3312;DHT22;1668;49.648;8.570;2022-10-19T11:01:02;16.80;99.90
3312;DHT22;1668;49.648;8.570;2022-10-19T11:03:31;16.80;99.90
3312;DHT22;1668;49.648;8.570;2022-10-19T11:05:59;16.90;99.90
3312;DHT22;1668;49.648;8.570;2022-10-19T11:08:33;16.90;99.90
3312;DHT22;1668;49.648;8.570;2022-10-19T11:11:09;16.90;99.90
3312;DHT22;1668;49.648;8.570;2022-10-19T11:13:42;17.10;99.90
3312;DHT22;1668;49.648;8.570;2022-10-19T11:16:13;17.10;99.90
3312;DHT22;1668;49.648;8.570;2022-10-19T11:18:45;17.10;99.90
3312;DHT22;1668;49.648;8.570;2022-10-19T11:21:16;17.10;99.90
3312;DHT22;1668;49.648;8.570;2022-10-19T11:23:54;17.20;99.90
3312;DHT22;1668;49.648;8.570;2022-10-19T11:26:32;17.10;99.90
3312;DHT22;1668;49.648;8.570;2022-10-19T11:29:14;17.20;99.90
3312;DHT22;1668;49.648;8.570;2022-10-19T11:31:47;17.20;99.90
3312;DHT22;1668;49.648;8.570;2022-10-19T11:34:31;17.20;99.90
3312;DHT22;1668;49.648;8.570;2022-10-19T11:37:06;17.30;99.90
3312;DHT22;1668;49.648;8.570;2022-10-19T11:39:48;17.30;99.90
3312;DHT22;1668;49.648;8.570;2022-10-19T11:42:26;17.40;99.90
3312;DHT22;1668;49.648;8.570;2022-10-19T11:45:03;17.40;99.90
3312;DHT22;1668;49.648;8.570;2022-10-19T11:47:50;17.50;99.90
3312;DHT22;1668;49.648;8.570;2022-10-19T11:50:30;17.60;99.90
3312;DHT22;1668;49.648;8.570;2022-10-19T11:53:02;17.70;99.90
3312;DHT22;1668;49.648;8.570;2022-10-19T11:55:38;17.80;99.90
3312;DHT22;1668;49.648;8.570;2022-10-19T11:58:32;17.90;99.90
3312;DHT22;1668;49.648;8.570;2022-10-19T12:01:10;18.00;99.90
3312;DHT22;1668;49.648;8.570;2022-10-19T12:06:46;18.20;99.90
3312;DHT22;1668;49.648;8.570;2022-10-19T12:09:26;18.20;99.90
3312;DHT22;1668;49.648;8.570;2022-10-19T12:12:24;18.20;99.90
3312;DHT22;1668;49.648;8.570;2022-10-19T12:14:58;18.30;99.90
3312;DHT22;1668;49.648;8.570;2022-10-19T12:17:29;18.20;99.90
3312;DHT22;1668;49.648;8.570;2022-10-19T12:20:00;18.30;99.90
3312;DHT22;1668;49.648;8.570;2022-10-19T12:22:29;18.20;99.90
3312;DHT22;1668;49.648;8.570;2022-10-19T12:24:58;18.20;99.90
3312;DHT22;1668;49.648;8.570;2022-10-19T12:27:30;18.20;99.90
3312;DHT22;1668;49.648;8.570;2022-10-19T12:30:03;18.20;99.90
3312;DHT22;1668;49.648;8.570;2022-10-19T12:32:35;18.20;99.90
3312;DHT22;1668;49.648;8.570;2022-10-19T12:35:07;18.20;99.90
3312;DHT22;1668;49.648;8.570;2022-10-19T12:37:45;18.30;99.90
3312;DHT22;1668;49.648;8.570;2022-10-19T12:40:20;18.30;99.90
3312;DHT22;1668;49.648;8.570;2022-10-19T12:42:56;18.20;99.90
3312;DHT22;1668;49.648;8.570;2022-10-19T12:45:27;18.20;99.90
3312;DHT22;1668;49.648;8.570;2022-10-19T12:48:19;18.20;99.90
3312;DHT22;1668;49.648;8.570;2022-10-19T12:51:14;18.10;99.90
3312;DHT22;1668;49.648;8.570;2022-10-19T12:53:44;18.10;99.90
3312;DHT22;1668;49.648;8.570;2022-10-19T12:56:18;18.10;99.90
3312;DHT22;1668;49.648;8.570;2022-10-19T12:58:53;18.10;99.90
3312;DHT22;1668;49.648;8.570;2022-10-19T13:01:23;18.10;99.90
3312;DHT22;1668;49.648;8.570;2022-10-19T13:04:05;18.10;99.90
3312;DHT22;1668;49.648;8.570;2022-10-19T13:06:33;18.10;99.90
3312;DHT22;1668;49.648;8.570;2022-10-19T13:09:03;18.10;99.90
3312;DHT22;1668;49.648;8.570;2022-10-19T13:11:32;18.10;99.90
3312;DHT22;1668;49.648;8.570;2022-10-19T13:14:02;18.20;99.90
3312;DHT22;1668;49.648;8.570;2022-10-19T13:16:55;18.20;99.90
3312;DHT22;1668;49.648;8.570;2022-10-19T13:19:22;18.20;99.90
3312;DHT22;1668;49.648;8.570;2022-10-19T13:24:39;18.10;99.90
3312;DHT22;1668;49.648;8.570;2022-10-19T13:27:26;18.10;99.90
3312;DHT22;1668;49.648;8.570;2022-10-19T13:29:54;18.10;99.90
3312;DHT22;1668;49.648;8.570;2022-10-19T13:32:42;18.20;99.90
3312;DHT22;1668;49.648;8.570;2022-10-19T13:35:28;18.10;99.90
3312;DHT22;1668;49.648;8.570;2022-10-19T13:38:26;18.10;99.90
3312;DHT22;1668;49.648;8.570;2022-10-19T13:41:07;18.10;99.90
3312;DHT22;1668;49.648;8.570;2022-10-19T13:43:38;18.10;99.90
3312;DHT22;1668;49.648;8.570;2022-10-19T13:46:13;18.00;99.90
3312;DHT22;1668;49.648;8.570;2022-10-19T13:49:12;18.00;99.90
3312;DHT22;1668;49.648;8.570;2022-10-19T13:51:54;18.00;99.90
3312;DHT22;1668;49.648;8.570;2022-10-19T13:54:36;17.90;99.90
3312;DHT22;1668;49.648;8.570;2022-10-19T13:57:17;17.90;99.90
3312;DHT22;1668;49.648;8.570;2022-10-19T14:00:03;17.90;99.90
3312;DHT22;1668;49.648;8.570;2022-10-19T14:05:57;17.90;99.90
3312;DHT22;1668;49.648;8.570;2022-10-19T14:08:46;17.90;99.90
3312;DHT22;1668;49.648;8.570;2022-10-19T14:11:18;17.90;99.90
3312;DHT22;1668;49.648;8.570;2022-10-19T14:14:06;17.90;99.90
3312;DHT22;1668;49.648;8.570;2022-10-19T14:16:43;17.90;99.90
3312;DHT22;1668;49.648;8.570;2022-10-19T14:19:13;17.90;99.90
3312;DHT22;1668;49.648;8.570;2022-10-19T14:21:45;17.90;99.90
3312;DHT22;1668;49.648;8.570;2022-10-19T14:24:19;18.00;99.90
3312;DHT22;1668;49.648;8.570;2022-10-19T14:26:46;18.30;99.90
3312;DHT22;1668;49.648;8.570;2022-10-19T14:29:13;18.40;99.90
3312;DHT22;1668;49.648;8.570;2022-10-19T14:31:41;18.40;99.90
3312;DHT22;1668;49.648;8.570;2022-10-19T14:34:08;18.40;99.90
3312;DHT22;1668;49.648;8.570;2022-10-19T14:36:38;18.50;99.90
3312;DHT22;1668;49.648;8.570;2022-10-19T14:39:21;18.50;99.90
3312;DHT22;1668;49.648;8.570;2022-10-19T14:41:52;18.30;99.90
3312;DHT22;1668;49.648;8.570;2022-10-19T14:44:35;18.20;99.90
3312;DHT22;1668;49.648;8.570;2022-10-19T14:47:14;18.10;99.90
3312;DHT22;1668;49.648;8.570;2022-10-19T14:49:42;18.10;99.90
3312;DHT22;1668;49.648;8.570;2022-10-19T14:52:12;18.20;99.90
3312;DHT22;1668;49.648;8.570;2022-10-19T14:54:43;18.20;99.90
3312;DHT22;1668;49.648;8.570;2022-10-19T14:57:13;18.10;99.90
3312;DHT22;1668;49.648;8.570;2022-10-19T14:59:44;18.00;99.90
3312;DHT22;1668;49.648;8.570;2022-10-19T15:02:17;17.80;99.90
3312;DHT22;1668;49.648;8.570;2022-10-19T15:04:44;17.80;99.90
3312;DHT22;1668;49.648;8.570;2022-10-19T15:07:18;17.70;99.90
3312;DHT22;1668;49.648;8.570;2022-10-19T15:09:52;17.70;99.90
3312;DHT22;1668;49.648;8.570;2022-10-19T15:12:24;17.60;99.90
3312;DHT22;1668;49.648;8.570;2022-10-19T15:14:53;17.50;99.90
3312;DHT22;1668;49.648;8.570;2022-10-19T15:17:26;17.50;99.90
3312;DHT22;1668;49.648;8.570;2022-10-19T15:19:53;17.40;99.90
3312;DHT22;1668;49.648;8.570;2022-10-19T15:22:36;17.40;99.90
3312;DHT22;1668;49.648;8.570;2022-10-19T15:25:25;17.40;99.90
3312;DHT22;1668;49.648;8.570;2022-10-19T15:27:53;17.40;99.90
3312;DHT22;1668;49.648;8.570;2022-10-19T15:30:25;17.40;99.90
3312;DHT22;1668;49.648;8.570;2022-10-19T15:32:57;17.40;99.90
3312;DHT22;1668;49.648;8.570;2022-10-19T15:35:35;17.40;99.90
3312;DHT22;1668;49.648;8.570;2022-10-19T15:38:06;17.40;99.90
3312;DHT22;1668;49.648;8.570;2022-10-19T15:40:36;17.40;99.90
3312;DHT22;1668;49.648;8.570;2022-10-19T15:43:37;17.40;99.90
3312;DHT22;1668;49.648;8.570;2022-10-19T15:46:23;17.30;99.90
3312;DHT22;1668;49.648;8.570;2022-10-19T15:48:51;17.20;99.90
3312;DHT22;1668;49.648;8.570;2022-10-19T15:51:40;17.10;99.90
3312;DHT22;1668;49.648;8.570;2022-10-19T15:54:10;17.10;99.90
3312;DHT22;1668;49.648;8.570;2022-10-19T15:56:42;17.00;99.90
3312;DHT22;1668;49.648;8.570;2022-10-19T15:59:12;17.00;99.90
3312;DHT22;1668;49.648;8.570;2022-10-19T16:01:39;17.00;99.90
3312;DHT22;1668;49.648;8.570;2022-10-19T16:04:07;16.90;99.90
3312;DHT22;1668;49.648;8.570;2022-10-19T16:06:36;16.90;99.90
3312;DHT22;1668;49.648;8.570;2022-10-19T16:09:04;16.80;99.90
3312;DHT22;1668;49.648;8.570;2022-10-19T16:11:33;16.70;99.90
3312;DHT22;1668;49.648;8.570;2022-10-19T16:14:01;16.60;99.90
3312;DHT22;1668;49.648;8.570;2022-10-19T16:16:31;16.60;99.90
3312;DHT22;1668;49.648;8.570;2022-10-19T16:18:58;16.50;99.90
3312;DHT22;1668;49.648;8.570;2022-10-19T16:21:28;16.50;99.90
3312;DHT22;1668;49.648;8.570;2022-10-19T16:23:55;16.50;99.90
3312;DHT22;1668;49.648;8.570;2022-10-19T16:26:22;16.40;99.90
3312;DHT22;1668;49.648;8.570;2022-10-19T16:28:52;16.20;99.90
3312;DHT22;1668;49.648;8.570;2022-10-19T16:31:19;16.20;99.90
3312;DHT22;1668;49.648;8.570;2022-10-19T16:33:46;16.20;99.90
3312;DHT22;1668;49.648;8.570;2022-10-19T16:36:13;16.10;99.90
3312;DHT22;1668;49.648;8.570;2022-10-19T16:38:43;16.00;99.90
3312;DHT22;1668;49.648;8.570;2022-10-19T16:41:10;16.00;99.90
3312;DHT22;1668;49.648;8.570;2022-10-19T16:43:38;16.00;99.90